sensor_id;sensor_type;location;lat;lon;timestamp;temperature;humidity
34522;DHT22;25561;48.888;8.736;2022-12-29T06:49:51;11.30;99.90
34522;DHT22;25561;48.888;8.736;2022-12-29T06:52:53;11.50;99.90
34522;DHT22;25561;48.888;8.736;2022-12-29T06:55:55;11.80;99.90
34522;DHT22;25561;48.888;8.736;2022-12-29T06:58:58;12.00;99.90
34522;DHT22;25561;48.888;8.736;2022-12-29T07:02:01;11.90;99.90
34522;DHT22;25561;48.888;8.736;2022-12-29T07:05:04;11.90;99.90
34522;DHT22;25561;48.888;8.736;2022-12-29T07:08:06;11.90;99.90
34522;DHT22;25561;48.888;8.736;2022-12-29T07:11:08;12.00;99.90
34522;DHT22;25561;48.888;8.736;2022-12-29T07:14:11;12.10;99.90
34522;DHT22;25561;48.888;8.736;2022-12-29T07:17:13;12.10;99.90
34522;DHT22;25561;48.888;8.736;2022-12-29T07:20:15;12.20;99.90
34522;DHT22;25561;48.888;8.736;2022-12-29T07:23:21;12.20;99.90
34522;DHT22;25561;48.888;8.736;2022-12-29T07:26:23;12.30;99.90
34522;DHT22;25561;48.888;8.736;2022-12-29T07:29:24;12.40;99.90
34522;DHT22;25561;48.888;8.736;2022-12-29T07:32:26;12.40;99.90
34522;DHT22;25561;48.888;8.736;2022-12-29T07:35:28;12.40;99.90
34522;DHT22;25561;48.888;8.736;2022-12-29T07:38:30;12.40;99.90
34522;DHT22;25561;48.888;8.736;2022-12-29T07:41:31;12.40;99.90
34522;DHT22;25561;48.888;8.736;2022-12-29T07:44:33;12.30;99.90
34522;DHT22;25561;48.888;8.736;2022-12-29T07:47:35;12.40;99.90
34522;DHT22;25561;48.888;8.736;2022-12-29T07:50:37;12.50;99.90
34522;DHT22;25561;48.888;8.736;2022-12-29T07:53:39;12.50;99.90
34522;DHT22;25561;48.888;8.736;2022-12-29T07:56:40;12.50;99.90
34522;DHT22;25561;48.888;8.736;2022-12-29T07:59:42;12.50;99.90
34522;DHT22;25561;48.888;8.736;2022-12-29T08:02:44;12.50;99.90
34522;DHT22;25561;48.888;8.736;2022-12-29T08:05:46;12.50;99.90
34522;DHT22;25561;48.888;8.736;2022-12-29T08:08:48;12.50;99.90
34522;DHT22;25561;48.888;8.736;2022-12-29T08:11:50;12.50;99.90
34522;DHT22;25561;48.888;8.736;2022-12-29T08:14:52;12.50;99.90
34522;DHT22;25561;48.888;8.736;2022-12-29T08:17:53;12.50;99.90
34522;DHT22;25561;48.888;8.736;2022-12-29T08:20:55;12.60;99.90
34522;DHT22;25561;48.888;8.736;2022-12-29T08:24:02;12.60;99.90
34522;DHT22;25561;48.888;8.736;2022-12-29T08:27:04;12.70;99.90
34522;DHT22;25561;48.888;8.736;2022-12-29T08:30:20;12.70;99.90
34522;DHT22;25561;48.888;8.736;2022-12-29T08:33:21;12.70;99.90
34522;DHT22;25561;48.888;8.736;2022-12-29T08:36:24;12.70;99.90
34522;DHT22;25561;48.888;8.736;2022-12-29T08:39:26;12.80;99.90
34522;DHT22;25561;48.888;8.736;2022-12-29T08:42:31;12.90;99.90
34522;DHT22;25561;48.888;8.736;2022-12-29T08:45:33;12.80;99.90
34522;DHT22;25561;48.888;8.736;2022-12-29T08:48:35;12.90;99.90
34522;DHT22;25561;48.888;8.736;2022-12-29T08:51:36;13.00;99.90
34522;DHT22;25561;48.888;8.736;2022-12-29T08:54:38;13.00;99.90
34522;DHT22;25561;48.888;8.736;2022-12-29T08:57:40;13.00;99.90
34522;DHT22;25561;48.888;8.736;2022-12-29T09:00:42;13.00;99.90
34522;DHT22;25561;48.888;8.736;2022-12-29T09:03:44;12.90;99.90
34522;DHT22;25561;48.888;8.736;2022-12-29T09:07:06;12.90;99.90
34522;DHT22;25561;48.888;8.736;2022-12-29T09:10:08;13.00;99.90
34522;DHT22;25561;48.888;8.736;2022-12-29T09:13:11;13.10;99.90
34522;DHT22;25561;48.888;8.736;2022-12-29T09:16:13;13.10;99.90
34522;DHT22;25561;48.888;8.736;2022-12-29T09:19:15;13.00;99.90
34522;DHT22;25561;48.888;8.736;2022-12-29T09:22:17;13.10;99.90
34522;DHT22;25561;48.888;8.736;2022-12-29T09:25:19;13.10;99.90
34522;DHT22;25561;48.888;8.736;2022-12-29T09:28:22;13.10;99.90
34522;DHT22;25561;48.888;8.736;2022-12-29T09:31:24;13.00;99.90
34522;DHT22;25561;48.888;8.736;2022-12-29T09:34:26;13.00;99.90
34522;DHT22;25561;48.888;8.736;2022-12-29T09:37:28;13.00;99.90
34522;DHT22;25561;48.888;8.736;2022-12-29T09:40:32;13.10;99.90
34522;DHT22;25561;48.888;8.736;2022-12-29T09:43:46;13.00;99.90
34522;DHT22;25561;48.888;8.736;2022-12-29T09:46:54;13.20;99.90
34522;DHT22;25561;48.888;8.736;2022-12-29T09:50:13;13.10;99.90
34522;DHT22;25561;48.888;8.736;2022-12-29T09:53:27;13.10;99.90
34522;DHT22;25561;48.888;8.736;2022-12-29T09:56:31;12.90;99.90
34522;DHT22;25561;48.888;8.736;2022-12-29T09:59:39;12.90;99.90
34522;DHT22;25561;48.888;8.736;2022-12-29T10:02:50;12.80;99.90
34522;DHT22;25561;48.888;8.736;2022-12-29T10:06:15;13.00;99.90
34522;DHT22;25561;48.888;8.736;2022-12-29T10:09:33;13.40;99.90
34522;DHT22;25561;48.888;8.736;2022-12-29T10:16:24;13.70;99.90
34522;DHT22;25561;48.888;8.736;2022-12-29T10:19:38;13.40;99.90
34522;DHT22;25561;48.888;8.736;2022-12-29T10:26:18;13.10;99.90
34522;DHT22;25561;48.888;8.736;2022-12-29T10:29:24;13.10;99.90
34522;DHT22;25561;48.888;8.736;2022-12-29T10:32:32;13.50;99.90
34522;DHT22;25561;48.888;8.736;2022-12-29T10:35:37;13.40;99.90
34522;DHT22;25561;48.888;8.736;2022-12-29T10:38:59;13.50;99.90
34522;DHT22;25561;48.888;8.736;2022-12-29T10:42:13;13.60;99.90
34522;DHT22;25561;48.888;8.736;2022-12-29T10:45:16;14.50;99.90
34522;DHT22;25561;48.888;8.736;2022-12-29T10:48:22;15.30;99.90
34522;DHT22;25561;48.888;8.736;2022-12-29T10:51:37;14.70;99.90
34522;DHT22;25561;48.888;8.736;2022-12-29T10:54:49;14.40;99.90
34522;DHT22;25561;48.888;8.736;2022-12-29T10:57:53;14.50;99.90
34522;DHT22;25561;48.888;8.736;2022-12-29T11:00:56;14.30;99.90
34522;DHT22;25561;48.888;8.736;2022-12-29T11:04:03;13.90;99.90
34522;DHT22;25561;48.888;8.736;2022-12-29T11:07:05;13.90;99.90
34522;DHT22;25561;48.888;8.736;2022-12-29T11:10:21;13.60;99.90
34522;DHT22;25561;48.888;8.736;2022-12-29T11:13:32;13.60;99.90
34522;DHT22;25561;48.888;8.736;2022-12-29T11:16:40;13.70;99.90
34522;DHT22;25561;48.888;8.736;2022-12-29T11:19:43;13.40;99.90
34522;DHT22;25561;48.888;8.736;2022-12-29T11:22:45;13.40;99.90
34522;DHT22;25561;48.888;8.736;2022-12-29T11:26:21;13.40;99.90
34522;DHT22;25561;48.888;8.736;2022-12-29T11:29:27;13.20;99.90
34522;DHT22;25561;48.888;8.736;2022-12-29T11:32:29;13.30;99.90
34522;DHT22;25561;48.888;8.736;2022-12-29T11:35:38;13.50;99.90
34522;DHT22;25561;48.888;8.736;2022-12-29T11:38:45;13.30;99.90
34522;DHT22;25561;48.888;8.736;2022-12-29T11:41:52;13.50;99.90
34522;DHT22;25561;48.888;8.736;2022-12-29T11:44:54;13.30;99.90
34522;DHT22;25561;48.888;8.736;2022-12-29T11:48:00;12.90;99.90
34522;DHT22;25561;48.888;8.736;2022-12-29T11:51:02;12.70;99.90
34522;DHT22;25561;48.888;8.736;2022-12-29T11:54:05;12.70;99.90
34522;DHT22;25561;48.888;8.736;2022-12-29T11:57:13;13.00;99.90
34522;DHT22;25561;48.888;8.736;2022-12-29T12:00:22;13.40;99.90
34522;DHT22;25561;48.888;8.736;2022-12-29T12:03:27;13.60;99.90
34522;DHT22;25561;48.888;8.736;2022-12-29T12:06:36;13.50;99.90
34522;DHT22;25561;48.888;8.736;2022-12-29T12:09:48;13.60;99.90
34522;DHT22;25561;48.888;8.736;2022-12-29T12:12:59;13.60;99.90
34522;DHT22;25561;48.888;8.736;2022-12-29T12:16:24;13.40;99.90
34522;DHT22;25561;48.888;8.736;2022-12-29T12:19:43;13.40;99.90
34522;DHT22;25561;48.888;8.736;2022-12-29T12:22:58;13.00;99.90
34522;DHT22;25561;48.888;8.736;2022-12-29T12:26:11;13.00;99.90
34522;DHT22;25561;48.888;8.736;2022-12-29T12:29:18;12.80;99.90
34522;DHT22;25561;48.888;8.736;2022-12-29T12:32:58;12.70;99.90
34522;DHT22;25561;48.888;8.736;2022-12-29T12:36:09;12.70;99.90
34522;DHT22;25561;48.888;8.736;2022-12-29T12:39:47;12.90;99.90
34522;DHT22;25561;48.888;8.736;2022-12-29T12:43:04;13.10;99.90
34522;DHT22;25561;48.888;8.736;2022-12-29T12:53:35;13.00;99.90
34522;DHT22;25561;48.888;8.736;2022-12-29T12:56:53;13.00;99.90
34522;DHT22;25561;48.888;8.736;2022-12-29T13:00:11;13.00;99.90
34522;DHT22;25561;48.888;8.736;2022-12-29T13:10:36;13.10;99.90
34522;DHT22;25561;48.888;8.736;2022-12-29T13:17:14;13.00;99.90
34522;DHT22;25561;48.888;8.736;2022-12-29T13:20:54;13.10;99.90
34522;DHT22;25561;48.888;8.736;2022-12-29T13:24:27;13.20;99.90
34522;DHT22;25561;48.888;8.736;2022-12-29T13:31:14;12.80;99.90
34522;DHT22;25561;48.888;8.736;2022-12-29T13:34:42;12.90;99.90
34522;DHT22;25561;48.888;8.736;2022-12-29T13:38:00;12.70;99.90
34522;DHT22;25561;48.888;8.736;2022-12-29T13:41:08;12.70;99.90
34522;DHT22;25561;48.888;8.736;2022-12-29T13:44:16;12.70;99.90
34522;DHT22;25561;48.888;8.736;2022-12-29T13:47:30;12.60;99.90
34522;DHT22;25561;48.888;8.736;2022-12-29T13:50:36;12.60;99.90
34522;DHT22;25561;48.888;8.736;2022-12-29T13:53:58;12.70;99.90
34522;DHT22;25561;48.888;8.736;2022-12-29T13:57:13;12.70;99.90
34522;DHT22;25561;48.888;8.736;2022-12-29T14:00:19;12.50;99.90
34522;DHT22;25561;48.888;8.736;2022-12-29T14:03:46;12.50;99.90
34522;DHT22;25561;48.888;8.736;2022-12-29T14:07:12;12.50;99.90
34522;DHT22;25561;48.888;8.736;2022-12-29T14:10:36;12.50;99.90
34522;DHT22;25561;48.888;8.736;2022-12-29T14:13:41;12.60;99.90
34522;DHT22;25561;48.888;8.736;2022-12-29T14:16:44;12.60;99.90
34522;DHT22;25561;48.888;8.736;2022-12-29T14:19:52;12.60;99.90
34522;DHT22;25561;48.888;8.736;2022-12-29T14:22:57;12.70;99.90
34522;DHT22;25561;48.888;8.736;2022-12-29T14:26:44;12.70;99.90
34522;DHT22;25561;48.888;8.736;2022-12-29T14:33:01;12.70;99.90
34522;DHT22;25561;48.888;8.736;2022-12-29T14:36:21;12.70;99.90
34522;DHT22;25561;48.888;8.736;2022-12-29T14:39:43;12.50;99.90
34522;DHT22;25561;48.888;8.736;2022-12-29T14:42:47;12.50;99.90
34522;DHT22;25561;48.888;8.736;2022-12-29T14:45:55;12.40;99.90
34522;DHT22;25561;48.888;8.736;2022-12-29T14:48:59;12.30;99.90
34522;DHT22;25561;48.888;8.736;2022-12-29T14:52:14;12.20;99.90
34522;DHT22;25561;48.888;8.736;2022-12-29T14:58:41;12.10;99.90
34522;DHT22;25561;48.888;8.736;2022-12-29T15:01:51;11.90;99.90
34522;DHT22;25561;48.888;8.736;2022-12-29T15:04:59;11.20;99.90
34522;DHT22;25561;48.888;8.736;2022-12-29T15:08:03;10.60;99.90
34522;DHT22;25561;48.888;8.736;2022-12-29T15:11:19;10.20;99.90
34522;DHT22;25561;48.888;8.736;2022-12-29T15:14:34;9.90;99.90
34522;DHT22;25561;48.888;8.736;2022-12-29T15:17:36;9.90;99.90
34522;DHT22;25561;48.888;8.736;2022-12-29T15:20:40;9.80;99.90
34522;DHT22;25561;48.888;8.736;2022-12-29T15:23:44;9.70;99.90
34522;DHT22;25561;48.888;8.736;2022-12-29T15:26:50;9.70;99.90
34522;DHT22;25561;48.888;8.736;2022-12-29T15:30:02;9.70;99.90
34522;DHT22;25561;48.888;8.736;2022-12-29T15:33:18;9.60;99.90
34522;DHT22;25561;48.888;8.736;2022-12-29T15:36:23;9.60;99.90
34522;DHT22;25561;48.888;8.736;2022-12-29T15:39:30;9.50;99.90
34522;DHT22;25561;48.888;8.736;2022-12-29T15:46:03;9.40;99.90
34522;DHT22;25561;48.888;8.736;2022-12-29T15:49:07;9.40;99.90
34522;DHT22;25561;48.888;8.736;2022-12-29T15:52:10;9.30;99.90
34522;DHT22;25561;48.888;8.736;2022-12-29T15:55:34;9.40;99.90
34522;DHT22;25561;48.888;8.736;2022-12-29T15:58:44;9.40;99.90
34522;DHT22;25561;48.888;8.736;2022-12-29T16:01:48;9.40;99.90
34522;DHT22;25561;48.888;8.736;2022-12-29T16:04:50;9.40;99.90
34522;DHT22;25561;48.888;8.736;2022-12-29T16:11:28;9.40;99.90
34522;DHT22;25561;48.888;8.736;2022-12-29T16:14:44;9.40;99.90
34522;DHT22;25561;48.888;8.736;2022-12-29T16:17:49;9.50;99.90
34522;DHT22;25561;48.888;8.736;2022-12-29T16:20:53;9.40;99.90
34522;DHT22;25561;48.888;8.736;2022-12-29T16:24:00;9.30;99.90
34522;DHT22;25561;48.888;8.736;2022-12-29T16:27:09;9.30;99.90
34522;DHT22;25561;48.888;8.736;2022-12-29T16:30:24;9.30;99.90
34522;DHT22;25561;48.888;8.736;2022-12-29T16:33:39;9.30;99.90
34522;DHT22;25561;48.888;8.736;2022-12-29T16:36:59;9.30;99.90
34522;DHT22;25561;48.888;8.736;2022-12-29T16:40:30;9.10;99.90
34522;DHT22;25561;48.888;8.736;2022-12-29T16:43:35;9.20;99.90
34522;DHT22;25561;48.888;8.736;2022-12-29T16:47:18;9.30;99.90
34522;DHT22;25561;48.888;8.736;2022-12-29T16:50:16;9.40;99.90
34522;DHT22;25561;48.888;8.736;2022-12-29T16:53:29;9.40;99.90
34522;DHT22;25561;48.888;8.736;2022-12-29T16:56:35;9.30;99.90
34522;DHT22;25561;48.888;8.736;2022-12-29T16:59:40;9.30;99.90
